createdAt,value
2022-10-05T00:01:02.570Z,95523.13
2022-10-05T00:03:10.304Z,95531.69
2022-10-05T00:05:21.174Z,95530.88
2022-10-05T00:07:24.356Z,95535.00
2022-10-05T00:09:26.153Z,95529.94
2022-10-05T00:11:27.831Z,95529.94
2022-10-05T00:13:31.067Z,95536.13
2022-10-05T00:15:32.702Z,95534.63
2022-10-05T00:17:34.797Z,95537.94
2022-10-05T00:19:38.445Z,95537.38
2022-10-05T00:21:40.083Z,95529.25
2022-10-05T00:23:41.673Z,95527.75
2022-10-05T00:25:43.334Z,95530.38
2022-10-05T00:27:52.320Z,95525.69
2022-10-05T00:29:58.870Z,95520.94
2022-10-05T00:32:00.489Z,95525.38
2022-10-05T00:34:02.148Z,95519.31
2022-10-05T00:36:06.894Z,95525.50
2022-10-05T00:38:08.555Z,95529.00
2022-10-05T00:40:22.026Z,95529.13
2022-10-05T00:42:48.873Z,95526.50
2022-10-05T00:44:56.170Z,95525.00
2022-10-05T00:47:08.865Z,95530.66
2022-10-05T00:49:26.599Z,95529.44
2022-10-05T00:51:33.910Z,95524.63
2022-10-05T00:53:44.404Z,95530.69
2022-10-05T00:56:04.068Z,95533.47
2022-10-05T00:58:20.379Z,95531.81
2022-10-05T01:00:26.073Z,95541.34
2022-10-05T01:02:39.943Z,95541.19
2022-10-05T01:04:50.281Z,95538.31
2022-10-05T01:07:10.102Z,95549.03
2022-10-05T01:09:39.476Z,95544.34
2022-10-05T01:12:04.217Z,95548.06
2022-10-05T01:14:38.293Z,95550.16
2022-10-05T01:17:01.349Z,95551.53
2022-10-05T01:19:38.267Z,95551.69
2022-10-05T01:21:57.522Z,95547.06
2022-10-05T01:24:17.251Z,95557.50
2022-10-05T01:26:44.118Z,95552.00
2022-10-05T01:28:47.343Z,95561.66
2022-10-05T01:31:09.983Z,95561.72
2022-10-05T01:33:44.081Z,95570.28
2022-10-05T01:36:10.319Z,95566.22
2022-10-05T01:38:33.049Z,95574.47
2022-10-05T01:41:04.176Z,95570.94
2022-10-05T01:43:18.263Z,95585.44
2022-10-05T01:45:45.069Z,95582.19
2022-10-05T01:48:14.311Z,95593.56
2022-10-05T01:50:34.974Z,95595.53
2022-10-05T01:53:10.037Z,95599.22
2022-10-05T01:55:18.149Z,95597.44
2022-10-05T01:57:37.827Z,95602.69
2022-10-05T01:59:58.137Z,95609.31
2022-10-05T02:02:09.815Z,95606.59
2022-10-05T02:05:03.723Z,95608.00
2022-10-05T02:06:56.652Z,95612.81
2022-10-05T02:09:04.922Z,95618.84
2022-10-05T02:11:09.328Z,95610.50
2022-10-05T02:13:23.194Z,95612.75
2022-10-05T02:15:42.558Z,95612.09
2022-10-05T02:17:53.552Z,95603.06
2022-10-05T02:20:00.753Z,95602.69
2022-10-05T02:22:06.479Z,95606.09
2022-10-05T02:24:13.430Z,95605.69
2022-10-05T02:26:16.997Z,95611.34
2022-10-05T02:28:23.811Z,95616.66
2022-10-05T02:30:25.488Z,95614.94
2022-10-05T02:32:29.937Z,95611.09
2022-10-05T02:34:37.850Z,95607.59
2022-10-05T02:36:39.753Z,95611.75
2022-10-05T02:38:54.102Z,95614.56
2022-10-05T02:41:33.710Z,95615.13
2022-10-05T02:43:57.735Z,95617.72
2022-10-05T02:46:04.706Z,95616.06
2022-10-05T02:48:25.368Z,95609.56
2022-10-05T02:50:41.452Z,95611.22
2022-10-05T02:53:01.667Z,95603.88
2022-10-05T02:55:19.582Z,95600.16
2022-10-05T02:57:24.323Z,95608.63
2022-10-05T02:59:36.155Z,95607.59
2022-10-05T03:01:46.045Z,95609.75
2022-10-05T03:04:02.906Z,95621.34
2022-10-05T03:06:13.410Z,95628.56
2022-10-05T03:08:32.186Z,95626.91
2022-10-05T03:10:40.367Z,95629.53
2022-10-05T03:13:14.141Z,95626.94
2022-10-05T03:15:24.668Z,95626.81
2022-10-05T03:17:31.094Z,95628.63
2022-10-05T03:19:37.034Z,95636.56
2022-10-05T03:22:00.824Z,95631.47
2022-10-05T03:24:11.625Z,95632.41
2022-10-05T03:26:19.114Z,95636.00
2022-10-05T03:28:54.420Z,95630.13
2022-10-05T03:31:02.408Z,95630.47
2022-10-05T03:33:36.447Z,95632.81
2022-10-05T03:35:41.158Z,95641.25
2022-10-05T03:38:20.554Z,95643.28
2022-10-05T03:40:25.286Z,95648.75
2022-10-05T03:42:32.847Z,95660.13
2022-10-05T03:45:07.423Z,95655.19
2022-10-05T03:47:20.056Z,95661.13
2022-10-05T03:49:31.649Z,95668.84
2022-10-05T03:51:39.848Z,95673.34
2022-10-05T03:53:49.311Z,95675.34
2022-10-05T03:55:55.289Z,95672.63
2022-10-05T03:57:59.304Z,95672.75
2022-10-05T04:00:12.888Z,95682.38
2022-10-05T04:02:36.129Z,95690.28
2022-10-05T04:04:45.583Z,95688.09
2022-10-05T04:06:51.668Z,95685.88
2022-10-05T04:09:05.347Z,95684.84
2022-10-05T04:11:13.795Z,95690.56
2022-10-05T04:13:28.309Z,95689.09
2022-10-05T04:15:43.360Z,95687.44
2022-10-05T04:17:48.110Z,95686.72
2022-10-05T04:19:58.114Z,95693.59
2022-10-05T04:22:06.434Z,95685.25
2022-10-05T04:24:37.998Z,95690.78
2022-10-05T04:26:39.587Z,95689.53
2022-10-05T04:28:56.140Z,95687.81
2022-10-05T04:30:58.419Z,95688.47
2022-10-05T04:33:00.968Z,95689.50
2022-10-05T04:35:39.631Z,95691.28
2022-10-05T04:38:02.647Z,95691.84
2022-10-05T04:40:22.521Z,95700.97
2022-10-05T04:42:24.217Z,95699.63
2022-10-05T04:44:47.581Z,95701.88
2022-10-05T04:47:17.684Z,95714.81
2022-10-05T04:49:19.372Z,95713.94
2022-10-05T04:51:33.639Z,95717.59
2022-10-05T04:53:53.538Z,95720.94
2022-10-05T04:56:20.905Z,95723.31
2022-10-05T04:58:50.128Z,95728.75
2022-10-05T05:01:01.641Z,95718.59
2022-10-05T05:03:21.850Z,95715.31
2022-10-05T05:05:32.260Z,95712.63
2022-10-05T05:07:55.059Z,95713.78
2022-10-05T05:10:02.630Z,95707.03
2022-10-05T05:12:43.303Z,95713.41
2022-10-05T05:15:03.258Z,95714.69
2022-10-05T05:17:26.334Z,95724.75
2022-10-05T05:19:33.454Z,95724.47
2022-10-05T05:22:04.516Z,95719.00
2022-10-05T05:24:32.275Z,95723.03
2022-10-05T05:26:38.796Z,95717.59
2022-10-05T05:29:22.696Z,95724.28
2022-10-05T05:31:24.290Z,95719.00
2022-10-05T05:33:42.140Z,95720.97
2022-10-05T05:36:11.943Z,95724.97
2022-10-05T05:38:55.673Z,95727.75
2022-10-05T05:41:29.850Z,95726.97
2022-10-05T05:43:43.974Z,95725.44
2022-10-05T05:45:55.254Z,95731.44
2022-10-05T05:47:59.328Z,95734.47
2022-10-05T05:50:10.409Z,95738.47
2022-10-05T05:52:20.445Z,95732.28
2022-10-05T05:54:35.750Z,95732.69
2022-10-05T05:56:44.265Z,95740.03
2022-10-05T05:59:13.590Z,95742.41
2022-10-05T06:01:35.454Z,95740.06
2022-10-05T06:03:42.981Z,95746.56
2022-10-05T06:05:49.607Z,95738.41
2022-10-05T06:07:53.274Z,95738.69
2022-10-05T06:10:06.127Z,95738.81
2022-10-05T06:12:12.137Z,95738.56
2022-10-05T06:14:35.377Z,95740.50
2022-10-05T06:16:48.470Z,95748.91
2022-10-05T06:19:04.108Z,95754.84
2022-10-05T06:21:21.156Z,95759.66
2022-10-05T06:23:48.914Z,95764.34
2022-10-05T06:26:04.995Z,95773.38
2022-10-05T06:28:12.852Z,95766.47
2022-10-05T06:30:15.674Z,95779.88
2022-10-05T06:32:52.971Z,95779.69
2022-10-05T06:34:58.267Z,95790.59
2022-10-05T06:37:01.964Z,95787.31
2022-10-05T06:39:06.413Z,95789.09
2022-10-05T06:41:38.714Z,95800.84
2022-10-05T06:44:01.220Z,95795.44
2022-10-05T06:46:23.059Z,95796.28
2022-10-05T06:48:47.675Z,95802.34
2022-10-05T06:50:52.605Z,95811.28
2022-10-05T06:53:07.638Z,95811.72
2022-10-05T06:55:16.923Z,95814.78
2022-10-05T06:57:40.308Z,95810.53
2022-10-05T07:00:13.887Z,95826.09
2022-10-05T07:02:21.526Z,95829.00
2022-10-05T07:04:37.132Z,95817.84
2022-10-05T07:06:45.099Z,95811.63
2022-10-05T07:09:04.237Z,95805.00
2022-10-05T07:11:20.985Z,95800.94
2022-10-05T07:13:34.371Z,95806.53
2022-10-05T07:15:58.438Z,95792.13
2022-10-05T07:18:23.039Z,95798.78
2022-10-05T07:20:24.572Z,95805.69
2022-10-05T07:22:34.235Z,95803.06
2022-10-05T07:24:43.602Z,95804.84
2022-10-05T07:26:47.184Z,95808.16
2022-10-05T07:29:07.284Z,95802.66
2022-10-05T07:31:31.630Z,95801.00
2022-10-05T07:33:40.293Z,95804.59
2022-10-05T07:36:22.373Z,95792.97
2022-10-05T07:38:35.732Z,95796.84
2022-10-05T07:41:07.533Z,95792.25
2022-10-05T07:43:35.946Z,95793.25
2022-10-05T07:45:58.048Z,95797.16
2022-10-05T07:48:16.508Z,95795.38
2022-10-05T07:50:29.003Z,95801.31
2022-10-05T07:52:39.164Z,95799.06
2022-10-05T07:54:56.390Z,95788.38
2022-10-05T07:57:38.381Z,95803.44
2022-10-05T07:59:57.257Z,95800.72
2022-10-05T08:02:14.090Z,95802.44
2022-10-05T08:04:19.844Z,95803.53
2022-10-05T08:06:53.683Z,95810.81
2022-10-05T08:09:01.964Z,95820.44
2022-10-05T08:11:14.519Z,95816.53
2022-10-05T08:13:24.890Z,95810.66
2022-10-05T08:15:32.173Z,95816.75
2022-10-05T08:17:48.435Z,95811.97
2022-10-05T08:19:56.419Z,95817.03
2022-10-05T08:22:05.353Z,95825.78
2022-10-05T08:24:48.639Z,95824.31
2022-10-05T08:26:55.551Z,95824.41
2022-10-05T08:29:18.419Z,95828.94
2022-10-05T08:31:30.023Z,95824.94
2022-10-05T08:33:36.968Z,95826.63
2022-10-05T08:35:44.064Z,95825.06
2022-10-05T08:37:46.327Z,95839.97
2022-10-05T08:39:56.827Z,95829.22
2022-10-05T08:42:23.010Z,95819.06
2022-10-05T08:44:42.628Z,95821.84
2022-10-05T08:47:00.927Z,95816.25
2022-10-05T08:49:02.487Z,95821.44
2022-10-05T08:51:16.121Z,95815.78
2022-10-05T08:53:27.237Z,95807.69
2022-10-05T08:55:28.872Z,95810.47
2022-10-05T08:58:02.872Z,95808.56
2022-10-05T09:00:21.118Z,95812.72
2022-10-05T09:02:43.168Z,95806.44
2022-10-05T09:04:58.181Z,95808.41
2022-10-05T09:07:29.186Z,95811.22
2022-10-05T09:09:51.929Z,95816.50
2022-10-05T09:12:02.933Z,95815.06
2022-10-05T09:14:29.724Z,95809.44
2022-10-05T09:17:08.762Z,95816.00
2022-10-05T09:19:32.699Z,95811.25
2022-10-05T09:21:42.719Z,95822.72
2022-10-05T09:23:46.346Z,95816.94
2022-10-05T09:26:04.098Z,95813.94
2022-10-05T09:28:35.265Z,95809.09
2022-10-05T09:31:22.804Z,95811.19
2022-10-05T09:33:36.518Z,95808.66
2022-10-05T09:36:15.805Z,95812.00
2022-10-05T09:38:51.382Z,95806.81
2022-10-05T09:41:11.606Z,95816.94
2022-10-05T09:43:28.338Z,95816.22
2022-10-05T09:45:49.087Z,95814.41
2022-10-05T09:48:16.590Z,95816.47
2022-10-05T09:50:34.016Z,95818.78
2022-10-05T09:53:09.580Z,95817.88
2022-10-05T09:55:19.972Z,95817.72
2022-10-05T09:57:27.576Z,95814.50
2022-10-05T09:59:54.131Z,95816.00
2022-10-05T10:02:20.526Z,95811.16
2022-10-05T10:04:34.565Z,95809.19
2022-10-05T10:06:41.940Z,95807.31
2022-10-05T10:09:20.836Z,95809.88
2022-10-05T10:11:32.718Z,95805.50
2022-10-05T10:13:45.808Z,95811.16
2022-10-05T10:16:16.428Z,95812.78
2022-10-05T10:18:20.771Z,95806.81
2022-10-05T10:20:46.320Z,95807.19
2022-10-05T10:23:00.954Z,95808.66
2022-10-05T10:25:20.913Z,95815.28
2022-10-05T10:27:54.472Z,95808.81
2022-10-05T10:30:16.635Z,95814.53
2022-10-05T10:32:18.224Z,95805.72
2022-10-05T10:34:37.936Z,95800.53
2022-10-05T10:36:55.791Z,95797.59
2022-10-05T10:39:21.416Z,95794.69
2022-10-05T10:41:33.758Z,95785.97
2022-10-05T10:44:20.233Z,95795.91
2022-10-05T10:46:41.853Z,95786.63
2022-10-05T10:48:59.769Z,95787.06
2022-10-05T10:51:44.027Z,95784.41
2022-10-05T10:53:48.318Z,95777.13
2022-10-05T10:56:11.971Z,95784.38
2022-10-05T10:58:35.047Z,95774.94
2022-10-05T11:00:54.474Z,95782.22
2022-10-05T11:03:25.502Z,95772.22
2022-10-05T11:05:36.137Z,95772.03
2022-10-05T11:08:22.746Z,95762.56
2022-10-05T11:10:54.207Z,95758.56
2022-10-05T11:13:22.111Z,95748.44
2022-10-05T11:15:45.111Z,95745.50
2022-10-05T11:18:45.789Z,95749.47
2022-10-05T11:20:59.256Z,95732.66
2022-10-05T11:23:33.168Z,95741.00
2022-10-05T11:26:15.711Z,95737.03
2022-10-05T11:28:48.963Z,95736.06
2022-10-05T11:30:54.509Z,95739.53
2022-10-05T11:33:32.099Z,95743.47
2022-10-05T11:35:42.874Z,95741.03
2022-10-05T11:38:14.846Z,95731.75
2022-10-05T11:40:33.357Z,95734.75
2022-10-05T11:42:53.297Z,95729.25
2022-10-05T11:44:57.984Z,95731.41
2022-10-05T11:47:25.266Z,95728.69
2022-10-05T11:49:32.973Z,95734.69
2022-10-05T11:52:02.639Z,95728.66
2022-10-05T11:54:17.570Z,95734.59
2022-10-05T11:56:34.503Z,95721.25
2022-10-05T11:58:44.156Z,95715.31
2022-10-05T12:01:15.992Z,95708.53
2022-10-05T12:04:02.321Z,95700.75
2022-10-05T12:06:25.672Z,95713.97
2022-10-05T12:08:36.203Z,95709.50
2022-10-05T12:11:03.884Z,95713.47
2022-10-05T12:13:13.966Z,95703.13
2022-10-05T12:15:29.449Z,95707.69
2022-10-05T12:17:42.908Z,95707.13
2022-10-05T12:19:48.712Z,95712.78
2022-10-05T12:21:54.461Z,95706.91
2022-10-05T12:24:26.794Z,95714.28
2022-10-05T12:26:38.168Z,95707.31
2022-10-05T12:29:14.437Z,95708.25
2022-10-05T12:31:25.262Z,95707.78
2022-10-05T12:34:04.603Z,95703.78
2022-10-05T12:36:20.038Z,95705.53
2022-10-05T12:38:33.138Z,95708.16
2022-10-05T12:40:45.351Z,95713.22
2022-10-05T12:43:10.275Z,95715.25
2022-10-05T12:45:24.026Z,95707.25
2022-10-05T12:47:32.426Z,95707.97
2022-10-05T12:49:52.793Z,95708.31
2022-10-05T12:52:01.081Z,95711.94
2022-10-05T12:54:11.174Z,95716.66
2022-10-05T12:56:34.598Z,95709.19
2022-10-05T12:58:46.702Z,95703.09
2022-10-05T13:01:12.149Z,95710.47
2022-10-05T13:03:44.987Z,95711.41
2022-10-05T13:06:04.273Z,95710.00
2022-10-05T13:08:13.918Z,95714.00
2022-10-05T13:11:01.719Z,95708.97
2022-10-05T13:13:23.649Z,95708.53
2022-10-05T13:15:33.631Z,95702.25
2022-10-05T13:17:50.429Z,95692.38
2022-10-05T13:20:02.579Z,95690.56
2022-10-05T13:22:36.741Z,95683.34
2022-10-05T13:24:59.353Z,95689.69
2022-10-05T13:27:05.125Z,95682.91
2022-10-05T13:29:37.910Z,95680.16
2022-10-05T13:31:46.822Z,95681.25
2022-10-05T13:34:04.045Z,95674.75
2022-10-05T13:36:12.530Z,95677.72
2022-10-05T13:38:43.000Z,95672.59
2022-10-05T13:41:12.751Z,95674.69
2022-10-05T13:43:28.301Z,95666.41
2022-10-05T13:45:36.518Z,95672.25
2022-10-05T13:47:45.763Z,95666.97
2022-10-05T13:50:04.143Z,95660.13
2022-10-05T13:52:23.961Z,95667.91
2022-10-05T13:54:37.626Z,95664.50
2022-10-05T13:57:01.242Z,95658.44
2022-10-05T13:59:03.147Z,95663.56
2022-10-05T14:01:35.662Z,95658.34
2022-10-05T14:03:38.978Z,95657.03
2022-10-05T14:05:55.870Z,95659.97
2022-10-05T14:08:17.391Z,95659.13
2022-10-05T14:10:41.861Z,95652.56
2022-10-05T14:12:44.161Z,95644.59
2022-10-05T14:14:54.107Z,95647.75
2022-10-05T14:16:58.109Z,95662.69
2022-10-05T14:18:59.789Z,95652.69
2022-10-05T14:21:14.097Z,95655.78
2022-10-05T14:23:25.442Z,95650.53
2022-10-05T14:25:28.809Z,95652.25
2022-10-05T14:27:34.436Z,95657.63
2022-10-05T14:29:37.994Z,95656.06
2022-10-05T14:31:48.062Z,95659.13
2022-10-05T14:33:49.820Z,95658.50
2022-10-05T14:35:53.938Z,95658.78
2022-10-05T14:38:00.783Z,95650.69
2022-10-05T14:40:23.097Z,95654.88
2022-10-05T14:42:30.733Z,95658.16
2022-10-05T14:46:50.858Z,95644.75
2022-10-05T14:49:24.319Z,95655.75
2022-10-05T14:51:30.569Z,95654.69
2022-10-05T14:53:44.687Z,95654.47
2022-10-05T14:56:24.881Z,95654.88
2022-10-05T14:58:45.028Z,95651.34
2022-10-05T15:00:57.084Z,95652.78
2022-10-05T15:03:18.804Z,95655.63
2022-10-05T15:05:47.849Z,95649.50
2022-10-05T15:07:49.625Z,95656.44
2022-10-05T15:10:29.572Z,95650.31
2022-10-05T15:12:46.804Z,95662.56
2022-10-05T15:14:50.413Z,95659.38
2022-10-05T15:16:53.833Z,95665.31
2022-10-05T15:19:17.097Z,95670.81
2022-10-05T15:21:30.238Z,95664.22
2022-10-05T15:23:53.035Z,95666.06
2022-10-05T15:26:01.694Z,95680.53
2022-10-05T15:28:12.578Z,95676.72
2022-10-05T15:30:18.250Z,95686.19
2022-10-05T15:32:55.791Z,95680.44
2022-10-05T15:35:09.634Z,95686.09
2022-10-05T15:37:33.054Z,95687.94
2022-10-05T15:39:41.549Z,95688.41
2022-10-05T15:42:01.879Z,95691.31
2022-10-05T15:44:07.209Z,95693.41
2022-10-05T15:46:40.309Z,95699.47
2022-10-05T15:48:49.659Z,95699.03
2022-10-05T15:51:15.355Z,95707.59
2022-10-05T15:53:40.264Z,95702.91
2022-10-05T15:55:47.890Z,95712.91
2022-10-05T15:58:19.151Z,95712.31
2022-10-05T16:00:22.669Z,95721.09
2022-10-05T16:02:56.336Z,95724.63
2022-10-05T16:05:16.181Z,95726.84
2022-10-05T16:07:41.269Z,95727.06
2022-10-05T16:10:06.422Z,95725.44
2022-10-05T16:12:30.543Z,95728.09
2022-10-05T16:14:55.989Z,95734.38
2022-10-05T16:17:22.014Z,95739.38
2022-10-05T16:19:35.957Z,95740.06
2022-10-05T16:22:12.131Z,95747.69
2022-10-05T16:24:55.210Z,95744.69
2022-10-05T16:27:03.271Z,95754.31
2022-10-05T16:29:17.230Z,95760.47
2022-10-05T16:31:40.776Z,95758.97
2022-10-05T16:34:03.080Z,95769.88
2022-10-05T16:36:44.657Z,95770.38
2022-10-05T16:38:57.908Z,95772.84
2022-10-05T16:41:09.466Z,95770.69
2022-10-05T16:43:46.850Z,95780.25
2022-10-05T16:46:13.085Z,95770.19
2022-10-05T16:48:29.346Z,95775.94
2022-10-05T16:50:49.625Z,95779.06
2022-10-05T16:52:58.086Z,95780.88
2022-10-05T16:55:04.006Z,95782.34
2022-10-05T16:57:14.367Z,95786.16
2022-10-05T16:59:44.382Z,95785.81
2022-10-05T17:02:10.304Z,95784.34
2022-10-05T17:04:33.763Z,95782.34
2022-10-05T17:06:48.430Z,95784.63
2022-10-05T17:09:04.876Z,95790.22
2022-10-05T17:11:43.100Z,95787.25
2022-10-05T17:14:06.553Z,95796.16
2022-10-05T17:16:20.321Z,95791.84
2022-10-05T17:18:50.711Z,95787.53
2022-10-05T17:21:09.411Z,95793.00
2022-10-05T17:23:29.299Z,95789.00
2022-10-05T17:25:40.325Z,95790.97
2022-10-05T17:27:54.813Z,95781.22
2022-10-05T17:30:19.091Z,95791.09
2022-10-05T17:32:23.514Z,95789.31
2022-10-05T17:34:27.959Z,95793.72
2022-10-05T17:36:44.577Z,95794.38
2022-10-05T17:38:49.185Z,95794.69
2022-10-05T17:41:14.321Z,95791.53
2022-10-05T17:43:15.899Z,95792.19
2022-10-05T17:45:20.703Z,95794.69
2022-10-05T17:47:56.348Z,95789.41
2022-10-05T17:50:18.193Z,95792.19
2022-10-05T17:52:45.689Z,95806.25
2022-10-05T17:55:05.848Z,95806.25
2022-10-05T17:57:07.372Z,95807.34
2022-10-05T17:59:09.309Z,95812.91
2022-10-05T18:01:17.290Z,95824.41
2022-10-05T18:03:39.318Z,95826.50
2022-10-05T18:05:41.108Z,95830.41
2022-10-05T18:07:48.881Z,95824.25
2022-10-05T18:09:59.768Z,95825.81
2022-10-05T18:12:16.742Z,95823.44
2022-10-05T18:14:24.709Z,95831.00
2022-10-05T18:16:56.781Z,95833.00
2022-10-05T18:18:59.068Z,95831.50
2022-10-05T18:21:15.738Z,95828.19
2022-10-05T18:23:25.719Z,95838.34
2022-10-05T18:25:45.614Z,95840.09
2022-10-05T18:28:09.161Z,95837.94
2022-10-05T18:30:19.910Z,95840.97
2022-10-05T18:33:07.840Z,95843.28
2022-10-05T18:35:20.359Z,95847.59
2022-10-05T18:37:43.914Z,95841.81
2022-10-05T18:40:12.039Z,95834.84
2022-10-05T18:42:23.092Z,95843.63
2022-10-05T18:44:44.531Z,95843.75
2022-10-05T18:46:53.741Z,95845.72
2022-10-05T18:49:04.308Z,95847.38
2022-10-05T18:51:31.022Z,95841.94
2022-10-05T18:53:39.062Z,95838.50
2022-10-05T18:55:55.632Z,95846.53
2022-10-05T18:58:16.086Z,95851.28
2022-10-05T19:00:20.153Z,95847.31
2022-10-05T19:02:28.744Z,95847.59
2022-10-05T19:05:07.273Z,95854.69
2022-10-05T19:07:22.807Z,95858.81
2022-10-05T19:09:56.852Z,95851.09
2022-10-05T19:12:04.085Z,95850.22
2022-10-05T19:14:14.628Z,95847.75
2022-10-05T19:16:46.962Z,95860.25
2022-10-05T19:19:12.319Z,95851.00
2022-10-05T19:21:39.549Z,95850.47
2022-10-05T19:24:08.219Z,95850.78
2022-10-05T19:26:39.198Z,95850.25
2022-10-05T19:29:17.938Z,95854.69
2022-10-05T19:31:44.218Z,95858.13
2022-10-05T19:34:27.328Z,95864.53
2022-10-05T19:36:50.725Z,95866.34
2022-10-05T19:39:30.626Z,95865.00
2022-10-05T19:41:40.868Z,95875.44
2022-10-05T19:43:45.634Z,95871.28
2022-10-05T19:46:04.216Z,95871.56
2022-10-05T19:48:14.353Z,95871.88
2022-10-05T19:50:32.819Z,95875.47
2022-10-05T19:52:43.402Z,95882.84
2022-10-05T19:55:00.873Z,95879.25
2022-10-05T19:57:16.960Z,95880.06
2022-10-05T19:59:20.711Z,95880.50
2022-10-05T20:01:34.243Z,95873.88
2022-10-05T20:03:38.130Z,95877.91
2022-10-05T20:05:40.041Z,95890.16
2022-10-05T20:07:41.707Z,95889.47
2022-10-05T20:10:22.915Z,95880.03
2022-10-05T20:12:55.939Z,95883.22
2022-10-05T20:15:27.117Z,95883.50
2022-10-05T20:17:48.089Z,95882.81
2022-10-05T20:20:08.575Z,95879.38
2022-10-05T20:22:30.338Z,95880.63
2022-10-05T20:24:49.287Z,95879.66
2022-10-05T20:27:02.482Z,95873.44
2022-10-05T20:29:04.503Z,95881.31
2022-10-05T20:31:09.456Z,95877.03
2022-10-05T20:33:14.739Z,95882.59
2022-10-05T20:35:18.435Z,95874.53
2022-10-05T20:37:20.147Z,95873.75
2022-10-05T20:39:21.866Z,95884.50
2022-10-05T20:41:23.579Z,95879.16
2022-10-05T20:43:25.117Z,95885.69
2022-10-05T20:45:26.695Z,95884.44
2022-10-05T20:47:28.598Z,95882.22
2022-10-05T20:49:35.145Z,95888.00
2022-10-05T20:51:38.234Z,95894.38
2022-10-05T20:53:39.849Z,95890.50
2022-10-05T20:55:41.434Z,95884.69
2022-10-05T20:57:43.199Z,95883.44
2022-10-05T20:59:44.858Z,95879.69
2022-10-05T21:01:49.464Z,95887.28
2022-10-05T21:03:51.092Z,95882.72
2022-10-05T21:05:52.964Z,95887.13
2022-10-05T21:07:54.556Z,95881.75
2022-10-05T21:09:56.170Z,95879.69
2022-10-05T21:11:58.446Z,95881.50
2022-10-05T21:14:04.773Z,95884.94
2022-10-05T21:16:08.859Z,95880.75
2022-10-05T21:18:10.534Z,95880.50
2022-10-05T21:20:12.362Z,95884.63
2022-10-05T21:22:14.100Z,95886.28
2022-10-05T21:24:16.087Z,95889.44
2022-10-05T21:26:17.904Z,95879.75
2022-10-05T21:28:19.548Z,95882.53
2022-10-05T21:30:21.611Z,95888.63
2022-10-05T21:32:23.264Z,95887.94
2022-10-05T21:34:24.909Z,95883.50
2022-10-05T21:36:26.487Z,95878.53
2022-10-05T21:38:29.013Z,95888.25
2022-10-05T21:40:30.917Z,95880.50
2022-10-05T21:42:32.693Z,95884.91
2022-10-05T21:44:34.641Z,95876.19
2022-10-05T21:46:36.753Z,95884.91
2022-10-05T21:48:39.493Z,95882.28
2022-10-05T21:50:41.483Z,95878.00
2022-10-05T21:52:43.239Z,95878.44
2022-10-05T21:54:44.927Z,95873.31
2022-10-05T21:56:53.201Z,95873.59
2022-10-05T21:58:55.051Z,95873.03
2022-10-05T22:00:56.823Z,95873.03
2022-10-05T22:02:58.466Z,95871.41
2022-10-05T22:05:00.149Z,95870.59
2022-10-05T22:07:01.789Z,95867.94
2022-10-05T22:09:05.442Z,95865.72
2022-10-05T22:11:13.974Z,95860.50
2022-10-05T22:13:15.850Z,95875.88
2022-10-05T22:15:17.931Z,95876.00
2022-10-05T22:17:28.213Z,95877.75
2022-10-05T22:19:29.821Z,95877.28
2022-10-05T22:21:34.182Z,95877.28
2022-10-05T22:23:36.041Z,95873.72
2022-10-05T22:25:38.228Z,95872.50
2022-10-05T22:27:40.087Z,95875.69
2022-10-05T22:29:42.037Z,95872.97
2022-10-05T22:31:45.315Z,95878.91
2022-10-05T22:33:46.928Z,95867.84
2022-10-05T22:35:48.732Z,95873.38
2022-10-05T22:37:50.345Z,95868.31
2022-10-05T22:39:51.980Z,95864.56
2022-10-05T22:41:53.612Z,95863.19
2022-10-05T22:43:55.294Z,95860.84
2022-10-05T22:45:57.111Z,95860.25
2022-10-05T22:47:58.841Z,95857.75
2022-10-05T22:50:01.017Z,95860.28
2022-10-05T22:52:02.650Z,95871.44
2022-10-05T22:54:04.491Z,95866.44
2022-10-05T22:56:11.082Z,95865.66
2022-10-05T22:58:12.790Z,95865.75
2022-10-05T23:00:14.675Z,95863.84
2022-10-05T23:02:18.024Z,95861.66
2022-10-05T23:04:19.627Z,95858.09
2022-10-05T23:06:21.294Z,95856.19
2022-10-05T23:08:22.916Z,95855.53
2022-10-05T23:10:26.195Z,95853.59
2022-10-05T23:12:27.845Z,95855.53
2022-10-05T23:14:30.814Z,95851.53
2022-10-05T23:16:32.623Z,95849.31
2022-10-05T23:18:34.252Z,95857.06
2022-10-05T23:20:37.044Z,95849.59
2022-10-05T23:22:39.370Z,95854.59
2022-10-05T23:24:40.940Z,95859.28
2022-10-05T23:26:42.751Z,95862.56
2022-10-05T23:28:47.288Z,95864.78
2022-10-05T23:30:49.115Z,95865.44
2022-10-05T23:32:50.754Z,95878.28
2022-10-05T23:34:52.302Z,95874.41
2022-10-05T23:36:53.853Z,95874.94
2022-10-05T23:38:55.671Z,95870.50
2022-10-05T23:40:58.938Z,95872.94
2022-10-05T23:43:00.948Z,95867.88
2022-10-05T23:45:02.757Z,95867.66
2022-10-05T23:47:04.473Z,95871.00
2022-10-05T23:49:06.069Z,95864.97
2022-10-05T23:51:10.189Z,95864.41
2022-10-05T23:53:11.873Z,95865.56
2022-10-05T23:55:13.574Z,95864.34
2022-10-05T23:57:19.143Z,95862.66
2022-10-05T23:59:20.684Z,95861.72
